Reno, NV

5:48 PM PDT on July 24, 2016 (GMT -0700)
Hidden Lake | | Change Station

Elev 4652 ft 39.37 °N, 119.75 °W | Updated 12 minutes ago

Partly Cloudy
Partly Cloudy
95.4 °F
Feels Like 91 °F
N
6.3
Wind Variable Wind from SSW

Today
High -- | Low -- °F
--% Chance of Precip.
Yesterday
High -- | Low -- °F
Precip. -- in
Pressure 29.81 in
Visibility 10.0 miles
Clouds Few 11000 ft
Heat Index 91 °F
Dew Point 35 °F
Humidity 12%
Rainfall 0.00 in
Snow Depth Not available.
5:52 AM 8:18 PM
Waning Gibbous, 71% visible
METAR KRNO 242355Z 32008KT 10SM FEW110 36/M07 A2999 RMK AO2 SLP093 T03611067 10361 20289 56013
Pressure 29.81 in
Visibility 10.0 miles
Clouds Few 11000 ft
Heat Index 91 °F
Dew Point 35 °F
Humidity 12%
Rainfall 0.00 in
Snow Depth Not available.
5:52 AM 8:18 PM
Waning Gibbous, 71% visible
METAR KRNO 242355Z 32008KT 10SM FEW110 36/M07 A2999 RMK AO2 SLP093 T03611067 10361 20289 56013

10-Day Weather Forecast

Almanac

Astronomy

Jul. 24, 2016 Rise Set
Actual Time
Civil Twilight
Nautical Twilight
Astronomical Twilight
Moon
Length of Visible Light
Length of Day
Tomorrow will be .
, % of the Moon is Illuminated

Today's Extremes

State Highs State Lows

Community

WunderPhotos

Upload Photos

1,927,218 photos uploaded!

WunderBlog® & News

Nearby

Air Quality

  Air Quality AQ Index Pollutant
Not available.

Snow Depth

Station Depth Elevation

Earthquake Activity

City Distance Mag. Time & Date
Minimum magnitude displayed is 2.5.

Coastal Water Temperatures

Place Temperature

Stations

Nearby Weather Stations

Station Location Temp. Windchill Dew Point Humidity Wind Precip. Elev Updated Type
                   

Watches & Warnings

There are currently no watches in effect.